createdAt,value
2022-08-27T00:00:05.125Z,99224.88
2022-08-27T00:00:15.091Z,99222.23
2022-08-27T00:00:25.198Z,99220.33
2022-08-27T00:00:35.178Z,99224.45
2022-08-27T00:00:45.203Z,99227.56
2022-08-27T00:00:55.102Z,99222.77
2022-08-27T00:01:05.198Z,99224.02
2022-08-27T00:01:15.123Z,99225.88
2022-08-27T00:01:25.093Z,99221.99
2022-08-27T00:01:35.168Z,99224.69
2022-08-27T00:01:45.192Z,99225.27
2022-08-27T00:01:55.203Z,99221.82
2022-08-27T00:02:05.186Z,99226.20
2022-08-27T00:02:15.209Z,99226.37
2022-08-27T00:02:25.189Z,99226.03
2022-08-27T00:02:35.163Z,99223.50
2022-08-27T00:02:45.074Z,99223.67
2022-08-27T00:02:55.176Z,99220.45
2022-08-27T00:03:05.131Z,99222.91
2022-08-27T00:03:15.192Z,99222.72
2022-08-27T00:03:25.175Z,99222.12
2022-08-27T00:03:35.151Z,99223.63
2022-08-27T00:03:45.144Z,99226.48
2022-08-27T00:03:55.191Z,99224.47
2022-08-27T00:04:05.171Z,99226.17
2022-08-27T00:04:15.250Z,99226.39
2022-08-27T00:04:25.138Z,99225.14
2022-08-27T00:04:35.146Z,99222.28
2022-08-27T00:04:45.115Z,99219.84
2022-08-27T00:04:55.183Z,99221.52
2022-08-27T00:05:05.146Z,99221.92
2022-08-27T00:05:15.207Z,99221.34
2022-08-27T00:05:25.125Z,99225.80
2022-08-27T00:05:35.112Z,99222.34
2022-08-27T00:05:45.183Z,99218.56
2022-08-27T00:05:55.185Z,99222.09
2022-08-27T00:06:05.164Z,99222.94
2022-08-27T00:06:15.218Z,99225.47
2022-08-27T00:06:25.183Z,99223.59
2022-08-27T00:06:35.185Z,99219.37
2022-08-27T00:06:46.172Z,99227.15
2022-08-27T00:06:55.214Z,99221.16
2022-08-27T00:07:05.130Z,99220.04
2022-08-27T00:07:15.109Z,99222.56
2022-08-27T00:07:25.173Z,99224.23
2022-08-27T00:07:35.162Z,99224.16
2022-08-27T00:07:45.095Z,99221.88
2022-08-27T00:07:55.171Z,99225.84
2022-08-27T00:08:05.091Z,99221.20
2022-08-27T00:08:15.189Z,99219.34
2022-08-27T00:08:25.095Z,99218.00
2022-08-27T00:08:35.174Z,99222.47
2022-08-27T00:08:45.115Z,99217.31
2022-08-27T00:08:55.173Z,99223.38
2022-08-27T00:09:05.172Z,99221.19
2022-08-27T00:09:15.123Z,99218.84
2022-08-27T00:09:27.189Z,99221.88
2022-08-27T00:09:35.090Z,99220.83
2022-08-27T00:09:45.151Z,99221.67
2022-08-27T00:09:55.200Z,99223.20
2022-08-27T00:10:05.155Z,99221.44
2022-08-27T00:10:15.145Z,99222.02
2022-08-27T00:10:25.132Z,99219.59
2022-08-27T00:10:35.112Z,99223.02
2022-08-27T00:10:45.121Z,99220.50
2022-08-27T00:10:55.184Z,99224.02
2022-08-27T00:11:05.174Z,99225.89
2022-08-27T00:11:15.099Z,99222.86
2022-08-27T00:11:25.113Z,99223.70
2022-08-27T00:11:35.156Z,99225.19
2022-08-27T00:11:45.158Z,99225.05
2022-08-27T00:11:55.178Z,99223.76
2022-08-27T00:12:05.077Z,99226.28
2022-08-27T00:12:15.076Z,99224.86
2022-08-27T00:12:25.105Z,99226.97
2022-08-27T00:12:35.177Z,99221.32
2022-08-27T00:12:45.183Z,99225.17
2022-08-27T00:12:55.187Z,99220.14
2022-08-27T00:13:05.201Z,99220.48
2022-08-27T00:13:15.159Z,99227.53
2022-08-27T00:13:25.174Z,99229.88
2022-08-27T00:13:35.166Z,99223.32
2022-08-27T00:13:45.164Z,99223.49
2022-08-27T00:13:55.186Z,99227.36
2022-08-27T00:14:05.128Z,99227.13
2022-08-27T00:14:15.165Z,99224.27
2022-08-27T00:14:25.155Z,99230.98
2022-08-27T00:14:35.125Z,99228.55
2022-08-27T00:14:45.096Z,99223.75
2022-08-27T00:14:55.131Z,99229.57
2022-08-27T00:15:05.124Z,99228.31
2022-08-27T00:15:17.828Z,99224.67
2022-08-27T00:15:25.176Z,99227.70
2022-08-27T00:15:35.205Z,99230.89
2022-08-27T00:15:45.115Z,99227.13
2022-08-27T00:15:55.103Z,99228.64
2022-08-27T00:16:05.208Z,99224.92
2022-08-27T00:16:15.248Z,99226.61
2022-08-27T00:16:25.215Z,99235.11
2022-08-27T00:16:35.119Z,99229.72
2022-08-27T00:16:45.257Z,99225.09
2022-08-27T00:16:55.137Z,99232.24
2022-08-27T00:17:05.130Z,99231.48
2022-08-27T00:17:15.178Z,99229.39
2022-08-27T00:17:25.162Z,99230.73
2022-08-27T00:17:35.095Z,99229.99
2022-08-27T00:17:45.119Z,99229.73
2022-08-27T00:17:55.082Z,99230.06
2022-08-27T00:18:05.102Z,99231.66
2022-08-27T00:18:15.188Z,99232.23
2022-08-27T00:18:25.127Z,99231.56
2022-08-27T00:18:35.156Z,99234.51
2022-08-27T00:18:47.969Z,99232.83
2022-08-27T00:18:55.159Z,99231.81
2022-08-27T00:19:05.121Z,99228.11
2022-08-27T00:19:15.158Z,99231.82
2022-08-27T00:19:25.115Z,99230.36
2022-08-27T00:19:35.207Z,99232.73
2022-08-27T00:19:45.108Z,99232.13
2022-08-27T00:19:55.106Z,99235.41
2022-08-27T00:20:05.188Z,99233.91
2022-08-27T00:20:15.186Z,99232.39
2022-08-27T00:20:25.202Z,99235.41
2022-08-27T00:20:35.097Z,99232.98
2022-08-27T00:20:45.148Z,99235.59
2022-08-27T00:20:55.145Z,99234.08
2022-08-27T00:21:05.194Z,99236.77
2022-08-27T00:21:15.166Z,99236.83
2022-08-27T00:21:25.196Z,99237.77
2022-08-27T00:21:35.160Z,99238.19
2022-08-27T00:21:45.154Z,99239.12
2022-08-27T00:21:55.079Z,99240.05
2022-08-27T00:22:05.094Z,99236.77
2022-08-27T00:22:15.089Z,99231.05
2022-08-27T00:22:25.179Z,99233.23
2022-08-27T00:22:35.123Z,99241.14
2022-08-27T00:22:45.107Z,99237.27
2022-08-27T00:22:55.105Z,99232.84
2022-08-27T00:23:05.189Z,99235.14
2022-08-27T00:23:15.171Z,99235.38
2022-08-27T00:23:25.138Z,99234.87
2022-08-27T00:23:35.125Z,99232.44
2022-08-27T00:23:45.160Z,99235.62
2022-08-27T00:23:55.087Z,99230.56
2022-08-27T00:24:05.183Z,99232.34
2022-08-27T00:24:15.181Z,99230.81
2022-08-27T00:24:25.173Z,99231.48
2022-08-27T00:24:35.170Z,99235.35
2022-08-27T00:24:48.980Z,99232.41
2022-08-27T00:24:55.183Z,99232.58
2022-08-27T00:25:05.120Z,99229.89
2022-08-27T00:25:15.121Z,99233.66
2022-08-27T00:25:25.130Z,99229.62
2022-08-27T00:25:35.134Z,99232.66
2022-08-27T00:25:45.204Z,99230.05
2022-08-27T00:25:55.205Z,99233.25
2022-08-27T00:26:05.094Z,99228.97
2022-08-27T00:26:15.142Z,99229.98
2022-08-27T00:26:25.182Z,99228.86
2022-08-27T00:26:35.153Z,99228.30
2022-08-27T00:26:45.213Z,99225.92
2022-08-27T00:26:55.157Z,99228.87
2022-08-27T00:27:05.151Z,99227.73
2022-08-27T00:27:15.162Z,99227.90
2022-08-27T00:27:25.097Z,99228.17
2022-08-27T00:27:35.161Z,99228.91
2022-08-27T00:27:45.094Z,99229.75
2022-08-27T00:27:55.189Z,99228.06
2022-08-27T00:28:05.186Z,99228.24
2022-08-27T00:28:15.172Z,99231.52
2022-08-27T00:28:25.077Z,99227.03
2022-08-27T00:28:35.188Z,99224.48
2022-08-27T00:28:45.170Z,99226.34
2022-08-27T00:28:55.175Z,99222.03
2022-08-27T00:29:05.194Z,99223.86
2022-08-27T00:29:15.200Z,99230.86
2022-08-27T00:29:25.179Z,99222.76
2022-08-27T00:29:35.173Z,99227.39
2022-08-27T00:29:45.164Z,99226.36
2022-08-27T00:29:55.087Z,99224.43
2022-08-27T00:30:05.163Z,99224.43
2022-08-27T00:30:15.072Z,99222.48
2022-08-27T00:30:25.115Z,99224.33
2022-08-27T00:30:35.083Z,99223.91
2022-08-27T00:30:45.109Z,99226.18
2022-08-27T00:30:55.106Z,99225.58
2022-08-27T00:31:05.155Z,99225.84
2022-08-27T00:31:15.213Z,99220.72
2022-08-27T00:31:27.358Z,99220.87
2022-08-27T00:31:35.174Z,99218.66
2022-08-27T00:31:45.115Z,99225.41
2022-08-27T00:31:55.130Z,99219.34
2022-08-27T00:32:05.162Z,99219.67
2022-08-27T00:32:15.217Z,99223.20
2022-08-27T00:32:25.088Z,99220.58
2022-08-27T00:32:35.161Z,99219.91
2022-08-27T00:32:45.170Z,99220.42
2022-08-27T00:32:55.169Z,99225.91
2022-08-27T00:33:05.158Z,99223.36
2022-08-27T00:33:15.082Z,99228.48
2022-08-27T00:33:25.083Z,99223.36
2022-08-27T00:33:35.073Z,99220.58
2022-08-27T00:33:45.086Z,99222.52
2022-08-27T00:33:55.201Z,99221.16
2022-08-27T00:34:05.081Z,99223.34
2022-08-27T00:34:15.102Z,99221.66
2022-08-27T00:34:25.205Z,99219.64
2022-08-27T00:34:35.071Z,99224.52
2022-08-27T00:34:45.094Z,99220.15
2022-08-27T00:34:55.109Z,99218.97
2022-08-27T00:35:05.100Z,99220.80
2022-08-27T00:35:15.157Z,99221.39
2022-08-27T00:35:25.202Z,99221.64
2022-08-27T00:35:35.080Z,99222.06
2022-08-27T00:35:45.096Z,99220.95
2022-08-27T00:35:55.112Z,99224.06
2022-08-27T00:36:05.185Z,99219.78
2022-08-27T00:36:15.160Z,99223.47
2022-08-27T00:36:25.075Z,99221.79
2022-08-27T00:36:35.176Z,99219.61
2022-08-27T00:36:45.114Z,99219.67
2022-08-27T00:36:55.123Z,99223.81
2022-08-27T00:37:05.169Z,99221.55
2022-08-27T00:37:15.112Z,99222.47
2022-08-27T00:37:25.169Z,99223.73
2022-08-27T00:37:35.162Z,99225.84
2022-08-27T00:37:45.101Z,99222.98
2022-08-27T00:37:55.086Z,99221.61
2022-08-27T00:38:05.201Z,99224.72
2022-08-27T00:38:15.148Z,99223.03
2022-08-27T00:38:25.096Z,99228.42
2022-08-27T00:38:35.136Z,99228.77
2022-08-27T00:38:45.172Z,99220.56
2022-08-27T00:38:55.150Z,99221.25
2022-08-27T00:39:05.113Z,99229.02
2022-08-27T00:39:15.184Z,99226.16
2022-08-27T00:39:25.160Z,99224.30
2022-08-27T00:39:35.185Z,99226.99
2022-08-27T00:39:45.168Z,99228.86
2022-08-27T00:39:55.225Z,99227.58
2022-08-27T00:40:05.207Z,99231.63
2022-08-27T00:40:15.273Z,99230.05
2022-08-27T00:40:25.088Z,99227.69
2022-08-27T00:40:35.242Z,99232.23
2022-08-27T00:40:45.078Z,99225.58
2022-08-27T00:40:55.094Z,99230.21
2022-08-27T00:41:05.080Z,99228.70
2022-08-27T00:41:18.252Z,99224.06
2022-08-27T00:41:25.182Z,99232.05
2022-08-27T00:41:35.118Z,99230.12
2022-08-27T00:41:45.198Z,99228.36
2022-08-27T00:41:55.171Z,99227.35
2022-08-27T00:42:05.137Z,99230.45
2022-08-27T00:42:15.106Z,99228.27
2022-08-27T00:42:25.147Z,99231.72
2022-08-27T00:42:35.097Z,99230.31
2022-08-27T00:42:45.098Z,99227.95
2022-08-27T00:42:55.180Z,99227.69
2022-08-27T00:43:05.192Z,99227.52
2022-08-27T00:43:15.195Z,99231.56
2022-08-27T00:43:25.126Z,99229.11
2022-08-27T00:43:35.144Z,99231.21
2022-08-27T00:43:45.135Z,99229.53
2022-08-27T00:43:55.104Z,99228.86
2022-08-27T00:44:05.096Z,99225.16
2022-08-27T00:44:15.073Z,99222.63
2022-08-27T00:44:25.135Z,99228.86
2022-08-27T00:44:35.099Z,99228.70
2022-08-27T00:44:45.176Z,99229.62
2022-08-27T00:44:55.082Z,99228.03
2022-08-27T00:45:05.092Z,99228.06
2022-08-27T00:45:15.193Z,99227.78
2022-08-27T00:45:25.107Z,99223.83
2022-08-27T00:45:35.244Z,99224.92
2022-08-27T00:45:45.215Z,99228.89
2022-08-27T00:45:55.242Z,99223.23
2022-08-27T00:46:05.227Z,99225.09
2022-08-27T00:46:15.192Z,99226.62
2022-08-27T00:46:25.113Z,99224.08
2022-08-27T00:46:35.073Z,99226.20
2022-08-27T00:46:45.078Z,99224.19
2022-08-27T00:46:55.196Z,99227.03
2022-08-27T00:47:05.103Z,99220.30
2022-08-27T00:47:15.167Z,99225.66
2022-08-27T00:47:25.136Z,99227.70
2022-08-27T00:47:35.126Z,99224.42
2022-08-27T00:47:45.101Z,99225.24
2022-08-27T00:47:55.190Z,99223.38
2022-08-27T00:48:06.201Z,99224.73
2022-08-27T00:48:15.180Z,99225.08
2022-08-27T00:48:25.114Z,99225.84
2022-08-27T00:48:35.139Z,99226.75
2022-08-27T00:48:45.083Z,99225.05
2022-08-27T00:48:55.171Z,99226.16
2022-08-27T00:49:05.184Z,99221.70
2022-08-27T00:49:15.148Z,99224.47
2022-08-27T00:49:25.186Z,99225.30
2022-08-27T00:49:35.190Z,99225.38
2022-08-27T00:49:45.133Z,99226.12
2022-08-27T00:49:55.145Z,99225.89
2022-08-27T00:50:05.196Z,99225.72
2022-08-27T00:50:15.088Z,99228.16
2022-08-27T00:50:25.131Z,99223.95
2022-08-27T00:50:35.119Z,99228.48
2022-08-27T00:50:45.083Z,99226.39
2022-08-27T00:50:55.095Z,99228.16
2022-08-27T00:51:05.192Z,99229.00
2022-08-27T00:51:15.083Z,99228.16
2022-08-27T00:51:25.159Z,99231.02
2022-08-27T00:51:35.175Z,99223.12
2022-08-27T00:51:45.201Z,99225.72
2022-08-27T00:51:55.170Z,99229.75
2022-08-27T00:52:05.174Z,99225.30
2022-08-27T00:52:15.123Z,99226.30
2022-08-27T00:52:25.183Z,99230.67
2022-08-27T00:52:35.115Z,99230.01
2022-08-27T00:52:45.186Z,99226.30
2022-08-27T00:52:55.150Z,99227.48
2022-08-27T00:53:05.218Z,99229.83
2022-08-27T00:53:15.200Z,99229.08
2022-08-27T00:53:25.203Z,99230.09
2022-08-27T00:53:35.105Z,99225.12
2022-08-27T00:53:45.097Z,99227.98
2022-08-27T00:53:55.073Z,99225.80
2022-08-27T00:54:05.153Z,99232.69
2022-08-27T00:54:18.773Z,99229.84
2022-08-27T00:54:25.075Z,99227.56
2022-08-27T00:54:35.110Z,99231.09
2022-08-27T00:54:45.106Z,99233.20
2022-08-27T00:54:55.114Z,99230.07
2022-08-27T00:55:05.195Z,99234.20
2022-08-27T00:55:15.105Z,99231.94
2022-08-27T00:55:25.178Z,99226.45
2022-08-27T00:55:35.074Z,99229.84
2022-08-27T00:55:45.071Z,99230.69
2022-08-27T00:55:55.111Z,99229.58
2022-08-27T00:56:05.071Z,99228.72
2022-08-27T00:56:15.167Z,99229.06
2022-08-27T00:56:25.143Z,99229.34
2022-08-27T00:56:35.169Z,99229.00
2022-08-27T00:56:48.733Z,99228.31
2022-08-27T00:56:55.080Z,99231.52
2022-08-27T00:57:05.204Z,99225.36
2022-08-27T00:57:15.078Z,99225.78
2022-08-27T00:57:25.176Z,99224.44
2022-08-27T00:57:35.124Z,99226.12
2022-08-27T00:57:45.102Z,99225.88
2022-08-27T00:57:55.166Z,99228.14
2022-08-27T00:58:05.144Z,99225.78
2022-08-27T00:58:15.146Z,99221.83
2022-08-27T00:58:25.108Z,99227.38
2022-08-27T00:58:35.129Z,99227.97
2022-08-27T00:58:45.114Z,99228.72
2022-08-27T00:58:55.116Z,99223.75
2022-08-27T00:59:05.116Z,99223.52
2022-08-27T00:59:15.194Z,99222.58
2022-08-27T00:59:25.072Z,99220.73
2022-08-27T00:59:35.075Z,99221.12
2022-08-27T00:59:45.167Z,99226.95
2022-08-27T00:59:55.161Z,99221.62
2022-08-27T01:00:05.085Z,99224.58
2022-08-27T01:00:15.193Z,99220.62
2022-08-27T01:00:25.173Z,99225.33
2022-08-27T01:00:35.294Z,99223.06
2022-08-27T01:00:45.235Z,99223.66
2022-08-27T01:00:55.193Z,99226.17
2022-08-27T01:01:05.151Z,99222.44
2022-08-27T01:01:15.148Z,99221.11
2022-08-27T01:01:25.254Z,99225.31
2022-08-27T01:01:35.807Z,99223.88
2022-08-27T01:01:45.157Z,99223.55
2022-08-27T01:01:55.154Z,99222.38
2022-08-27T01:02:05.217Z,99223.55
2022-08-27T01:02:15.163Z,99220.86
2022-08-27T01:02:25.234Z,99219.69
2022-08-27T01:02:35.217Z,99222.37
2022-08-27T01:02:45.198Z,99223.30
2022-08-27T01:02:55.099Z,99225.66
2022-08-27T01:03:05.117Z,99227.08
2022-08-27T01:03:15.169Z,99223.89
2022-08-27T01:03:25.114Z,99220.17
2022-08-27T01:03:35.202Z,99226.34
2022-08-27T01:03:45.078Z,99225.22
2022-08-27T01:03:55.205Z,99225.98
2022-08-27T01:04:05.158Z,99223.36
2022-08-27T01:04:15.158Z,99220.75
2022-08-27T01:04:25.186Z,99221.77
2022-08-27T01:04:35.150Z,99226.80
2022-08-27T01:04:45.164Z,99225.81
2022-08-27T01:04:55.085Z,99227.24
2022-08-27T01:05:05.079Z,99222.20
2022-08-27T01:05:15.205Z,99225.14
2022-08-27T01:05:25.193Z,99226.00
2022-08-27T01:05:35.143Z,99221.47
2022-08-27T01:05:45.168Z,99226.17
2022-08-27T01:05:55.100Z,99226.25
2022-08-27T01:06:05.129Z,99225.94
2022-08-27T01:06:16.136Z,99226.50
2022-08-27T01:06:25.171Z,99223.14
2022-08-27T01:06:35.162Z,99222.22
2022-08-27T01:06:45.112Z,99225.17
2022-08-27T01:06:55.120Z,99224.66
2022-08-27T01:07:05.163Z,99223.73
2022-08-27T01:07:15.088Z,99224.22
2022-08-27T01:07:25.139Z,99221.04
2022-08-27T01:07:35.190Z,99219.67
2022-08-27T01:07:45.094Z,99227.35
2022-08-27T01:07:55.185Z,99220.53
2022-08-27T01:08:05.133Z,99222.14
2022-08-27T01:08:15.080Z,99219.61
2022-08-27T01:08:25.200Z,99222.30
2022-08-27T01:08:35.071Z,99221.62
2022-08-27T01:08:45.191Z,99226.45
2022-08-27T01:08:55.123Z,99219.19
2022-08-27T01:09:05.075Z,99221.40
2022-08-27T01:09:15.156Z,99219.77
2022-08-27T01:09:25.167Z,99222.24
2022-08-27T01:09:35.155Z,99219.05
2022-08-27T01:09:45.131Z,99221.40
2022-08-27T01:09:55.121Z,99215.23
2022-08-27T01:10:05.170Z,99215.09
2022-08-27T01:10:15.111Z,99217.52
2022-08-27T01:10:25.072Z,99217.19
2022-08-27T01:10:35.093Z,99218.38
2022-08-27T01:10:45.106Z,99223.02
2022-08-27T01:10:55.181Z,99219.94
2022-08-27T01:11:05.098Z,99217.80
2022-08-27T01:11:15.163Z,99221.65
2022-08-27T01:11:25.222Z,99219.88
2022-08-27T01:11:35.093Z,99220.72
2022-08-27T01:11:45.126Z,99217.52
2022-08-27T01:11:55.143Z,99216.75
2022-08-27T01:12:05.134Z,99220.55
2022-08-27T01:12:15.171Z,99223.02
2022-08-27T01:12:25.107Z,99219.88
2022-08-27T01:12:35.077Z,99214.58
2022-08-27T01:12:45.200Z,99218.70
2022-08-27T01:12:55.149Z,99220.22
2022-08-27T01:13:05.126Z,99222.73
2022-08-27T01:13:15.096Z,99220.05
2022-08-27T01:13:42.150Z,99218.36
2022-08-27T01:13:59.141Z,99220.55
2022-08-27T01:13:59.538Z,99218.05
2022-08-27T01:14:00.801Z,99222.59
2022-08-27T01:14:05.131Z,99220.55
2022-08-27T01:14:15.152Z,99225.78
2022-08-27T01:14:25.125Z,99224.02
2022-08-27T01:14:35.089Z,99220.98
2022-08-27T01:14:45.189Z,99217.05
2022-08-27T01:14:55.153Z,99219.75
2022-08-27T01:15:05.072Z,99220.76
2022-08-27T01:15:19.794Z,99218.55
2022-08-27T01:15:25.114Z,99224.34
2022-08-27T01:15:35.187Z,99222.77
2022-08-27T01:15:45.137Z,99224.62
2022-08-27T01:15:55.236Z,99225.12
2022-08-27T01:16:05.312Z,99224.05
2022-08-27T01:16:15.167Z,99223.61
2022-08-27T01:16:25.196Z,99225.73
2022-08-27T01:16:35.229Z,99226.08
2022-08-27T01:16:45.106Z,99223.30
2022-08-27T01:16:55.096Z,99225.05
2022-08-27T01:17:05.072Z,99228.19
2022-08-27T01:17:15.114Z,99226.68
2022-08-27T01:17:25.184Z,99226.51
2022-08-27T01:17:35.168Z,99225.75
2022-08-27T01:17:45.137Z,99225.33
2022-08-27T01:17:55.163Z,99224.59
2022-08-27T01:18:05.189Z,99220.53
2022-08-27T01:18:15.184Z,99223.08
2022-08-27T01:18:25.098Z,99226.52
2022-08-27T01:18:35.097Z,99226.95
2022-08-27T01:18:45.092Z,99228.46
2022-08-27T01:18:55.187Z,99229.55
2022-08-27T01:19:05.146Z,99227.03
2022-08-27T01:19:15.094Z,99230.81
2022-08-27T01:19:25.084Z,99229.13
2022-08-27T01:19:35.168Z,99228.79
2022-08-27T01:19:45.072Z,99230.66
2022-08-27T01:19:55.184Z,99229.55
2022-08-27T01:20:05.071Z,99224.19
2022-08-27T01:20:15.166Z,99227.97
2022-08-27T01:20:25.146Z,99228.13
2022-08-27T01:20:35.167Z,99231.33
2022-08-27T01:20:45.130Z,99229.56
2022-08-27T01:20:55.203Z,99229.06
2022-08-27T01:21:05.141Z,99230.40
2022-08-27T01:21:15.181Z,99232.87
2022-08-27T01:21:25.175Z,99231.24
2022-08-27T01:21:35.164Z,99226.87
2022-08-27T01:21:45.150Z,99229.83
2022-08-27T01:21:55.150Z,99229.08
2022-08-27T01:22:05.152Z,99227.64
2022-08-27T01:22:20.404Z,99227.81
2022-08-27T01:22:25.171Z,99234.14
2022-08-27T01:22:35.160Z,99233.36
2022-08-27T01:22:45.192Z,99231.84
2022-08-27T01:22:55.202Z,99230.34
2022-08-27T01:23:05.149Z,99231.52
2022-08-27T01:23:15.118Z,99233.64
2022-08-27T01:23:25.174Z,99233.38
2022-08-27T01:23:35.124Z,99232.54
2022-08-27T01:23:45.079Z,99230.78
2022-08-27T01:23:55.167Z,99232.12
2022-08-27T01:24:05.100Z,99230.60
2022-08-27T01:24:15.110Z,99233.47
2022-08-27T01:24:25.130Z,99233.16
2022-08-27T01:24:35.092Z,99230.70
2022-08-27T01:24:45.072Z,99232.33
2022-08-27T01:24:55.167Z,99232.55
2022-08-27T01:25:05.102Z,99236.11
2022-08-27T01:25:15.162Z,99237.87
2022-08-27T01:25:25.178Z,99234.09
2022-08-27T01:25:35.094Z,99231.81
2022-08-27T01:25:45.126Z,99235.01
2022-08-27T01:25:55.101Z,99233.49
2022-08-27T01:26:05.136Z,99231.98
2022-08-27T01:26:15.073Z,99238.14
2022-08-27T01:26:25.094Z,99236.28
2022-08-27T01:26:35.078Z,99235.12
2022-08-27T01:26:45.087Z,99238.90
2022-08-27T01:26:55.133Z,99234.04
2022-08-27T01:27:05.179Z,99233.42
2022-08-27T01:27:15.184Z,99230.50
2022-08-27T01:27:25.153Z,99233.37
2022-08-27T01:27:35.126Z,99235.88
2022-08-27T01:27:45.110Z,99236.30
2022-08-27T01:27:55.150Z,99237.57
2022-08-27T01:28:05.147Z,99237.41
2022-08-27T01:28:15.109Z,99234.77
2022-08-27T01:28:26.854Z,99233.88
2022-08-27T01:28:37.534Z,99234.62
2022-08-27T01:28:45.086Z,99237.90
2022-08-27T01:28:55.077Z,99235.04
2022-08-27T01:29:05.154Z,99231.52
2022-08-27T01:29:15.115Z,99228.56
2022-08-27T01:29:25.107Z,99230.17
2022-08-27T01:29:35.107Z,99230.92
2022-08-27T01:29:45.171Z,99235.97
2022-08-27T01:29:55.124Z,99233.86
2022-08-27T01:30:05.185Z,99233.19
2022-08-27T01:30:15.187Z,99230.92
2022-08-27T01:30:25.077Z,99232.02
2022-08-27T01:30:35.173Z,99230.50
2022-08-27T01:30:45.104Z,99231.85
2022-08-27T01:30:55.198Z,99234.55
2022-08-27T01:31:05.244Z,99231.77
2022-08-27T01:31:15.182Z,99230.34
2022-08-27T01:31:25.234Z,99235.63
2022-08-27T01:31:35.154Z,99232.02
2022-08-27T01:31:45.193Z,99233.95
2022-08-27T01:31:55.271Z,99232.02
2022-08-27T01:32:05.130Z,99229.91
2022-08-27T01:32:15.156Z,99234.38
2022-08-27T01:32:25.157Z,99235.88
2022-08-27T01:32:35.072Z,99234.62
2022-08-27T01:32:45.148Z,99234.20
2022-08-27T01:32:55.084Z,99237.39
2022-08-27T01:33:05.201Z,99235.88
2022-08-27T01:33:15.168Z,99232.52
2022-08-27T01:33:25.120Z,99230.84
2022-08-27T01:33:35.144Z,99232.70
2022-08-27T01:33:45.133Z,99230.42
2022-08-27T01:33:55.140Z,99234.28
2022-08-27T01:34:05.192Z,99234.05
2022-08-27T01:34:15.120Z,99230.61
2022-08-27T01:34:25.192Z,99230.95
2022-08-27T01:34:35.198Z,99232.18
2022-08-27T01:34:45.083Z,99233.19
2022-08-27T01:34:55.088Z,99233.55
2022-08-27T01:35:05.107Z,99235.98
2022-08-27T01:35:15.143Z,99233.88
2022-08-27T01:35:25.102Z,99232.88
2022-08-27T01:35:35.115Z,99231.52
2022-08-27T01:35:45.141Z,99233.62
2022-08-27T01:35:55.128Z,99234.75
2022-08-27T01:36:05.171Z,99233.55
2022-08-27T01:36:15.188Z,99235.25
2022-08-27T01:36:25.103Z,99232.30
2022-08-27T01:36:35.203Z,99236.17
2022-08-27T01:36:45.114Z,99234.32
2022-08-27T01:36:57.284Z,99235.08
2022-08-27T01:37:05.170Z,99231.46
2022-08-27T01:37:15.153Z,99234.15
2022-08-27T01:37:25.091Z,99233.63
2022-08-27T01:37:35.087Z,99231.50
2022-08-27T01:37:45.112Z,99231.77
2022-08-27T01:37:57.035Z,99231.52
2022-08-27T01:38:05.114Z,99237.57
2022-08-27T01:38:18.942Z,99235.85
2022-08-27T01:38:30.128Z,99233.92
2022-08-27T01:38:35.189Z,99235.77
2022-08-27T01:38:45.092Z,99234.34
2022-08-27T01:38:55.189Z,99233.67
2022-08-27T01:39:05.427Z,99235.81
2022-08-27T01:39:15.197Z,99233.31
2022-08-27T01:39:25.169Z,99235.58
2022-08-27T01:39:35.083Z,99233.62
2022-08-27T01:39:45.147Z,99231.45
2022-08-27T01:39:55.214Z,99236.67
2022-08-27T01:40:05.250Z,99237.59
2022-08-27T01:40:16.805Z,99239.70
2022-08-27T01:40:25.287Z,99229.44
2022-08-27T01:40:35.132Z,99233.64
2022-08-27T01:40:45.185Z,99233.80
2022-08-27T01:40:55.139Z,99232.19
2022-08-27T01:41:05.174Z,99237.31
2022-08-27T01:41:15.076Z,99236.56
2022-08-27T01:41:25.155Z,99232.42
2022-08-27T01:41:35.133Z,99231.57
2022-08-27T01:41:45.141Z,99236.61
2022-08-27T01:41:55.146Z,99232.58
2022-08-27T01:42:05.130Z,99233.34
2022-08-27T01:42:15.115Z,99232.33
2022-08-27T01:42:25.074Z,99234.77
2022-08-27T01:42:35.147Z,99236.19
2022-08-27T01:42:45.094Z,99234.26
2022-08-27T01:42:55.080Z,99233.34
2022-08-27T01:43:05.080Z,99234.93
2022-08-27T01:43:15.124Z,99233.27
2022-08-27T01:43:25.085Z,99237.62
2022-08-27T01:43:35.144Z,99236.61
2022-08-27T01:43:45.118Z,99238.12
2022-08-27T01:43:55.075Z,99234.26
2022-08-27T01:44:05.170Z,99235.34
2022-08-27T01:44:16.304Z,99230.72
2022-08-27T01:44:25.094Z,99232.88
2022-08-27T01:44:35.148Z,99234.39
2022-08-27T01:44:45.111Z,99233.20
2022-08-27T01:44:55.132Z,99234.22
2022-08-27T01:45:05.929Z,99233.19
2022-08-27T01:45:15.114Z,99235.54
2022-08-27T01:45:25.097Z,99235.70
2022-08-27T01:45:35.123Z,99232.16
2022-08-27T01:45:45.173Z,99234.02
2022-08-27T01:45:55.147Z,99234.34
2022-08-27T01:46:05.139Z,99235.69
2022-08-27T01:46:15.154Z,99233.51
2022-08-27T01:46:25.216Z,99234.78
2022-08-27T01:46:35.233Z,99235.19
2022-08-27T01:46:45.237Z,99236.09
2022-08-27T01:46:55.128Z,99233.84
2022-08-27T01:47:05.251Z,99237.52
2022-08-27T01:47:15.128Z,99234.69
2022-08-27T01:47:25.074Z,99237.33
2022-08-27T01:47:35.158Z,99239.69
2022-08-27T01:47:45.187Z,99234.31
2022-08-27T01:47:55.080Z,99234.31
2022-08-27T01:48:05.089Z,99239.36
2022-08-27T01:48:15.158Z,99232.80
2022-08-27T01:48:25.076Z,99224.85
2022-08-27T01:48:35.099Z,99233.95
2022-08-27T01:48:45.204Z,99233.60
2022-08-27T01:48:55.170Z,99235.52
2022-08-27T01:49:05.148Z,99235.62
2022-08-27T01:49:15.094Z,99233.08
2022-08-27T01:49:25.152Z,99234.26
2022-08-27T01:49:35.154Z,99237.94
2022-08-27T01:49:45.071Z,99233.58
2022-08-27T01:49:55.090Z,99229.52
2022-08-27T01:50:05.180Z,99234.75
2022-08-27T01:50:15.129Z,99230.12
2022-08-27T01:50:25.128Z,99232.62
2022-08-27T01:50:35.139Z,99231.28
2022-08-27T01:50:45.109Z,99234.92
2022-08-27T01:50:55.089Z,99230.27
2022-08-27T01:51:05.088Z,99236.09
2022-08-27T01:51:15.093Z,99238.89
2022-08-27T01:51:25.175Z,99234.74
2022-08-27T01:51:35.137Z,99233.99
2022-08-27T01:51:45.126Z,99236.59
2022-08-27T01:51:55.100Z,99231.80
2022-08-27T01:52:05.077Z,99235.10
2022-08-27T01:52:15.097Z,99233.56
2022-08-27T01:52:25.154Z,99236.61
2022-08-27T01:52:35.173Z,99233.59
2022-08-27T01:52:45.102Z,99231.40
2022-08-27T01:52:55.111Z,99235.94
2022-08-27T01:53:05.175Z,99234.58
2022-08-27T01:53:15.160Z,99236.34
2022-08-27T01:53:25.149Z,99232.39
2022-08-27T01:53:35.108Z,99234.75
2022-08-27T01:53:45.179Z,99236.08
2022-08-27T01:53:55.137Z,99229.88
2022-08-27T01:54:05.130Z,99233.23
2022-08-27T01:54:15.095Z,99229.52
2022-08-27T01:54:25.198Z,99232.28
2022-08-27T01:54:35.192Z,99233.55
2022-08-27T01:54:45.118Z,99232.88
2022-08-27T01:54:55.174Z,99237.00
2022-08-27T01:55:05.118Z,99235.55
2022-08-27T01:55:15.142Z,99232.61
2022-08-27T01:55:25.180Z,99236.81
2022-08-27T01:55:35.110Z,99231.02
2022-08-27T01:55:48.242Z,99233.93
2022-08-27T01:55:55.091Z,99237.39
2022-08-27T01:56:05.105Z,99235.52
2022-08-27T01:56:15.104Z,99233.92
2022-08-27T01:56:25.076Z,99231.98
2022-08-27T01:56:35.143Z,99234.83
2022-08-27T01:56:45.115Z,99235.92
2022-08-27T01:56:55.175Z,99234.41
2022-08-27T01:57:05.072Z,99234.47
2022-08-27T01:57:15.117Z,99235.81
2022-08-27T01:57:26.266Z,99233.61